sensor_id;sensor_type;location;lat;lon;timestamp;pressure;altitude;pressure_sealevel;temperature;humidity
64602;BME280;51013;42.630;23.192;2022-08-19T00:01:58;92267.53;;;18.82;74.63
64602;BME280;51013;42.630;23.192;2022-08-19T00:04:28;92240.25;;;18.64;74.84
64602;BME280;51013;42.630;23.192;2022-08-19T00:06:57;92281.94;;;18.88;74.34
64602;BME280;51013;42.630;23.192;2022-08-19T00:09:25;92285.75;;;18.87;74.96
64602;BME280;51013;42.630;23.192;2022-08-19T00:11:53;92275.91;;;18.77;75.25
64602;BME280;51013;42.630;23.192;2022-08-19T00:14:22;92276.28;;;18.83;75.12
64602;BME280;51013;42.630;23.192;2022-08-19T00:16:51;92289.22;;;18.80;75.46
64602;BME280;51013;42.630;23.192;2022-08-19T00:19:21;92297.19;;;18.73;75.52
64602;BME280;51013;42.630;23.192;2022-08-19T00:21:48;92306.03;;;18.59;76.08
64602;BME280;51013;42.630;23.192;2022-08-19T00:24:17;92282.16;;;18.45;76.25
64602;BME280;51013;42.630;23.192;2022-08-19T00:26:44;92304.47;;;18.62;76.43
64602;BME280;51013;42.630;23.192;2022-08-19T00:29:13;92289.72;;;18.47;76.34
64602;BME280;51013;42.630;23.192;2022-08-19T00:31:41;92226.47;;;18.02;76.78
64602;BME280;51013;42.630;23.192;2022-08-19T00:34:08;92291.19;;;18.58;76.33
64602;BME280;51013;42.630;23.192;2022-08-19T00:36:36;92120.75;;;17.39;76.40
64602;BME280;51013;42.630;23.192;2022-08-19T00:39:05;92256.38;;;18.28;76.66
64602;BME280;51013;42.630;23.192;2022-08-19T00:41:33;92273.41;;;18.45;77.34
64602;BME280;51013;42.630;23.192;2022-08-19T00:44:05;92288.97;;;18.46;77.27
64602;BME280;51013;42.630;23.192;2022-08-19T00:46:33;92215.13;;;17.94;76.72
64602;BME280;51013;42.630;23.192;2022-08-19T00:49:05;92268.53;;;18.29;77.03
64602;BME280;51013;42.630;23.192;2022-08-19T00:51:33;92291.28;;;18.37;77.52
64602;BME280;51013;42.630;23.192;2022-08-19T00:54:02;92185.19;;;17.65;77.76
64602;BME280;51013;42.630;23.192;2022-08-19T00:56:30;92245.06;;;18.06;77.43
64602;BME280;51013;42.630;23.192;2022-08-19T00:58:59;92270.06;;;18.22;77.39
64602;BME280;51013;42.630;23.192;2022-08-19T01:01:27;92117.06;;;17.15;77.32
64602;BME280;51013;42.630;23.192;2022-08-19T01:03:55;92279.94;;;18.29;78.13
64602;BME280;51013;42.630;23.192;2022-08-19T01:06:23;92279.19;;;18.25;77.47
64602;BME280;51013;42.630;23.192;2022-08-19T01:08:50;92283.75;;;18.21;77.76
64602;BME280;51013;42.630;23.192;2022-08-19T01:11:17;92244.00;;;17.89;77.77
64602;BME280;51013;42.630;23.192;2022-08-19T01:13:44;92274.69;;;18.11;78.06
64602;BME280;51013;42.630;23.192;2022-08-19T01:16:13;92268.63;;;18.04;78.30
64602;BME280;51013;42.630;23.192;2022-08-19T01:18:42;92262.56;;;17.99;78.48
64602;BME280;51013;42.630;23.192;2022-08-19T01:21:12;92236.75;;;17.82;78.60
64602;BME280;51013;42.630;23.192;2022-08-19T01:23:45;92270.91;;;18.05;78.46
64602;BME280;51013;42.630;23.192;2022-08-19T01:26:15;92267.84;;;18.07;78.72
64602;BME280;51013;42.630;23.192;2022-08-19T01:28:44;92226.53;;;17.77;78.78
64602;BME280;51013;42.630;23.192;2022-08-19T01:31:14;92266.00;;;17.96;78.83
64602;BME280;51013;42.630;23.192;2022-08-19T01:33:41;92270.53;;;17.99;78.55
64602;BME280;51013;42.630;23.192;2022-08-19T01:36:10;92217.84;;;17.55;79.07
64602;BME280;51013;42.630;23.192;2022-08-19T01:38:41;92239.81;;;17.73;78.71
64602;BME280;51013;42.630;23.192;2022-08-19T01:41:11;92265.25;;;17.89;78.96
64602;BME280;51013;42.630;23.192;2022-08-19T01:43:39;92226.19;;;17.60;78.96
64602;BME280;51013;42.630;23.192;2022-08-19T01:46:05;92192.47;;;17.25;78.89
64602;BME280;51013;42.630;23.192;2022-08-19T01:48:34;92272.44;;;17.77;79.11
64602;BME280;51013;42.630;23.192;2022-08-19T01:51:03;92250.09;;;17.64;78.88
64602;BME280;51013;42.630;23.192;2022-08-19T01:53:30;92275.47;;;17.76;79.01
64602;BME280;51013;42.630;23.192;2022-08-19T01:55:57;92277.00;;;17.77;79.18
64602;BME280;51013;42.630;23.192;2022-08-19T01:58:33;92262.97;;;17.69;78.80
64602;BME280;51013;42.630;23.192;2022-08-19T02:01:02;92178.09;;;17.08;79.19
64602;BME280;51013;42.630;23.192;2022-08-19T02:03:29;92213.34;;;17.27;79.39
64602;BME280;51013;42.630;23.192;2022-08-19T02:05:59;92281.56;;;17.69;79.33
64602;BME280;51013;42.630;23.192;2022-08-19T02:08:28;92181.13;;;17.03;78.90
64602;BME280;51013;42.630;23.192;2022-08-19T02:10:57;92282.34;;;17.59;79.55
64602;BME280;51013;42.630;23.192;2022-08-19T02:13:28;92269.06;;;17.59;79.37
64602;BME280;51013;42.630;23.192;2022-08-19T02:15:57;92225.47;;;17.24;79.39
64602;BME280;51013;42.630;23.192;2022-08-19T02:18:24;92256.94;;;17.43;79.33
64602;BME280;51013;42.630;23.192;2022-08-19T02:20:52;92255.44;;;17.42;79.58
64602;BME280;51013;42.630;23.192;2022-08-19T02:23:19;92242.91;;;17.32;79.31
64602;BME280;51013;42.630;23.192;2022-08-19T02:25:47;92185.31;;;16.93;79.44
64602;BME280;51013;42.630;23.192;2022-08-19T02:28:15;92205.78;;;17.00;79.59
64602;BME280;51013;42.630;23.192;2022-08-19T02:30:43;92177.72;;;16.85;79.70
64602;BME280;51013;42.630;23.192;2022-08-19T02:33:10;92243.28;;;17.27;79.83
64602;BME280;51013;42.630;23.192;2022-08-19T02:35:41;92222.06;;;17.06;79.79
64602;BME280;51013;42.630;23.192;2022-08-19T02:38:08;92264.16;;;17.36;79.79
64602;BME280;51013;42.630;23.192;2022-08-19T02:40:55;92267.56;;;17.29;79.77
64602;BME280;51013;42.630;23.192;2022-08-19T02:43:22;92204.63;;;16.94;80.39
64602;BME280;51013;42.630;23.192;2022-08-19T02:45:52;92261.13;;;17.34;79.99
64602;BME280;51013;42.630;23.192;2022-08-19T02:48:20;92263.00;;;17.33;80.38
64602;BME280;51013;42.630;23.192;2022-08-19T02:50:49;92252.03;;;17.20;80.65
64602;BME280;51013;42.630;23.192;2022-08-19T02:53:20;92236.09;;;17.10;80.19
64602;BME280;51013;42.630;23.192;2022-08-19T02:55:49;92263.78;;;17.19;80.44
64602;BME280;51013;42.630;23.192;2022-08-19T02:58:17;92266.81;;;17.18;80.38
64602;BME280;51013;42.630;23.192;2022-08-19T03:00:46;92250.88;;;17.11;80.50
64602;BME280;51013;42.630;23.192;2022-08-19T03:03:15;92254.69;;;17.10;80.81
64602;BME280;51013;42.630;23.192;2022-08-19T03:05:42;92066.63;;;15.82;80.94
64602;BME280;51013;42.630;23.192;2022-08-19T03:08:09;92269.09;;;17.16;80.96
64602;BME280;51013;42.630;23.192;2022-08-19T03:10:42;92233.06;;;16.93;81.06
64602;BME280;51013;42.630;23.192;2022-08-19T03:13:12;92245.19;;;16.94;81.19
64602;BME280;51013;42.630;23.192;2022-08-19T03:15:40;92225.06;;;16.79;81.38
64602;BME280;51013;42.630;23.192;2022-08-19T03:18:07;92253.91;;;17.02;80.71
64602;BME280;51013;42.630;23.192;2022-08-19T03:20:41;92263.00;;;16.97;81.18
64602;BME280;51013;42.630;23.192;2022-08-19T03:23:08;92257.69;;;17.01;81.14
64602;BME280;51013;42.630;23.192;2022-08-19T03:25:40;92251.63;;;16.90;81.22
64602;BME280;51013;42.630;23.192;2022-08-19T03:28:09;92248.59;;;16.84;81.12
64602;BME280;51013;42.630;23.192;2022-08-19T03:30:37;92276.66;;;16.96;81.04
64602;BME280;51013;42.630;23.192;2022-08-19T03:33:06;92268.31;;;16.97;81.09
64602;BME280;51013;42.630;23.192;2022-08-19T03:35:33;92274.38;;;16.94;81.15
64602;BME280;51013;42.630;23.192;2022-08-19T03:38:04;92254.63;;;16.77;81.15
64602;BME280;51013;42.630;23.192;2022-08-19T03:40:32;92281.22;;;16.95;81.47
64602;BME280;51013;42.630;23.192;2022-08-19T03:43:00;92256.53;;;16.77;81.56
64602;BME280;51013;42.630;23.192;2022-08-19T03:45:28;92286.09;;;16.86;81.53
64602;BME280;51013;42.630;23.192;2022-08-19T03:47:54;92248.50;;;16.62;81.31
64602;BME280;51013;42.630;23.192;2022-08-19T03:50:21;92058.03;;;15.12;81.94
64602;BME280;51013;42.630;23.192;2022-08-19T03:52:50;92201.09;;;16.21;81.50
64602;BME280;51013;42.630;23.192;2022-08-19T03:55:19;92294.06;;;16.86;81.62
64602;BME280;51013;42.630;23.192;2022-08-19T03:57:46;92296.69;;;16.79;81.81
64602;BME280;51013;42.630;23.192;2022-08-19T04:00:14;92276.56;;;16.63;82.15
64602;BME280;51013;42.630;23.192;2022-08-19T04:02:41;92295.94;;;16.82;82.63
64602;BME280;51013;42.630;23.192;2022-08-19T04:05:09;92301.63;;;16.77;82.72
64602;BME280;51013;42.630;23.192;2022-08-19T04:07:36;92298.94;;;16.80;82.43
64602;BME280;51013;42.630;23.192;2022-08-19T04:10:04;92299.00;;;16.84;82.50
64602;BME280;51013;42.630;23.192;2022-08-19T04:12:32;92279.97;;;16.68;82.47
64602;BME280;51013;42.630;23.192;2022-08-19T04:15:00;92292.13;;;16.79;82.60
64602;BME280;51013;42.630;23.192;2022-08-19T04:17:26;92305.06;;;16.88;82.82
64602;BME280;51013;42.630;23.192;2022-08-19T04:19:53;92307.34;;;16.90;82.94
64602;BME280;51013;42.630;23.192;2022-08-19T04:22:20;92293.66;;;16.77;83.32
64602;BME280;51013;42.630;23.192;2022-08-19T04:24:47;92287.97;;;16.75;83.13
64602;BME280;51013;42.630;23.192;2022-08-19T04:27:14;92323.25;;;16.90;83.68
64602;BME280;51013;42.630;23.192;2022-08-19T04:29:43;92224.59;;;16.34;83.24
64602;BME280;51013;42.630;23.192;2022-08-19T04:32:10;92253.06;;;16.55;83.48
64602;BME280;51013;42.630;23.192;2022-08-19T04:34:37;92206.75;;;16.23;83.61
64602;BME280;51013;42.630;23.192;2022-08-19T04:37:05;92225.75;;;16.40;83.67
64602;BME280;51013;42.630;23.192;2022-08-19T04:39:40;92278.91;;;16.83;84.07
64602;BME280;51013;42.630;23.192;2022-08-19T04:42:24;92304.34;;;17.02;83.98
64602;BME280;51013;42.630;23.192;2022-08-19T04:45:11;92256.88;;;16.68;84.36
64602;BME280;51013;42.630;23.192;2022-08-19T04:47:41;92262.22;;;16.82;84.50
64602;BME280;51013;42.630;23.192;2022-08-19T04:50:08;92309.28;;;17.18;84.33
64602;BME280;51013;42.630;23.192;2022-08-19T04:52:37;92273.63;;;16.94;84.81
64602;BME280;51013;42.630;23.192;2022-08-19T04:55:08;92304.34;;;17.27;85.09
64602;BME280;51013;42.630;23.192;2022-08-19T04:57:37;92314.59;;;17.39;85.88
64602;BME280;51013;42.630;23.192;2022-08-19T05:00:13;92299.81;;;17.42;85.32
64602;BME280;51013;42.630;23.192;2022-08-19T05:02:41;92289.94;;;17.39;84.59
64602;BME280;51013;42.630;23.192;2022-08-19T05:05:08;92287.66;;;17.41;85.05
64602;BME280;51013;42.630;23.192;2022-08-19T05:07:36;92265.28;;;17.20;85.40
64602;BME280;51013;42.630;23.192;2022-08-19T05:10:05;92300.56;;;17.57;85.62
64602;BME280;51013;42.630;23.192;2022-08-19T05:12:32;92300.19;;;17.62;85.67
64602;BME280;51013;42.630;23.192;2022-08-19T05:14:59;92311.91;;;17.82;85.91
64602;BME280;51013;42.630;23.192;2022-08-19T05:17:28;92317.63;;;17.92;85.65
64602;BME280;51013;42.630;23.192;2022-08-19T05:19:55;92321.03;;;18.03;84.91
64602;BME280;51013;42.630;23.192;2022-08-19T05:22:40;92245.16;;;17.55;85.10
64602;BME280;51013;42.630;23.192;2022-08-19T05:25:11;92282.31;;;17.84;84.65
64602;BME280;51013;42.630;23.192;2022-08-19T05:27:39;92284.94;;;18.02;85.18
64602;BME280;51013;42.630;23.192;2022-08-19T05:30:09;92324.34;;;18.32;84.69
64602;BME280;51013;42.630;23.192;2022-08-19T05:32:37;92322.44;;;18.40;82.78
64602;BME280;51013;42.630;23.192;2022-08-19T05:35:05;92315.19;;;18.51;82.14
64602;BME280;51013;42.630;23.192;2022-08-19T05:37:32;92238.22;;;18.08;81.53
64602;BME280;51013;42.630;23.192;2022-08-19T05:39:59;92297.69;;;18.57;81.04
64602;BME280;51013;42.630;23.192;2022-08-19T05:42:26;92316.97;;;18.79;80.78
64602;BME280;51013;42.630;23.192;2022-08-19T05:44:53;92310.84;;;18.90;81.29
64602;BME280;51013;42.630;23.192;2022-08-19T05:47:21;92288.41;;;18.87;80.16
64602;BME280;51013;42.630;23.192;2022-08-19T05:49:49;92311.50;;;19.08;79.56
64602;BME280;51013;42.630;23.192;2022-08-19T05:52:18;92307.22;;;19.18;79.62
64602;BME280;51013;42.630;23.192;2022-08-19T05:54:46;92293.97;;;19.14;80.64
64602;BME280;51013;42.630;23.192;2022-08-19T05:57:16;92315.88;;;19.36;80.22
64602;BME280;51013;42.630;23.192;2022-08-19T05:59:44;92261.28;;;19.10;78.41
64602;BME280;51013;42.630;23.192;2022-08-19T06:02:16;92241.13;;;19.09;77.50
64602;BME280;51013;42.630;23.192;2022-08-19T06:04:45;92232.75;;;19.11;76.66
64602;BME280;51013;42.630;23.192;2022-08-19T06:07:13;92325.41;;;19.83;76.76
64602;BME280;51013;42.630;23.192;2022-08-19T06:09:42;92248.81;;;19.49;75.47
64602;BME280;51013;42.630;23.192;2022-08-19T06:12:10;92306.19;;;20.02;76.27
64602;BME280;51013;42.630;23.192;2022-08-19T06:14:37;92313.66;;;20.18;76.98
64602;BME280;51013;42.630;23.192;2022-08-19T06:17:04;92319.25;;;20.27;76.87
64602;BME280;51013;42.630;23.192;2022-08-19T06:19:31;92253.72;;;19.95;74.99
64602;BME280;51013;42.630;23.192;2022-08-19T06:21:59;92261.47;;;20.17;73.27
64602;BME280;51013;42.630;23.192;2022-08-19T06:24:28;92280.66;;;20.39;73.07
64602;BME280;51013;42.630;23.192;2022-08-19T06:26:58;92294.47;;;20.65;72.65
64602;BME280;51013;42.630;23.192;2022-08-19T06:29:26;92295.50;;;20.74;72.32
64602;BME280;51013;42.630;23.192;2022-08-19T06:31:56;92320.34;;;20.98;72.34
64602;BME280;51013;42.630;23.192;2022-08-19T06:34:24;92311.81;;;21.11;72.36
64602;BME280;51013;42.630;23.192;2022-08-19T06:36:52;92313.50;;;21.25;73.97
64602;BME280;51013;42.630;23.192;2022-08-19T06:39:22;92306.84;;;21.36;72.74
64602;BME280;51013;42.630;23.192;2022-08-19T06:41:54;92309.41;;;21.47;70.73
64602;BME280;51013;42.630;23.192;2022-08-19T06:44:23;92283.06;;;21.46;72.46
64602;BME280;51013;42.630;23.192;2022-08-19T06:46:50;92256.41;;;21.38;71.03
64602;BME280;51013;42.630;23.192;2022-08-19T06:49:18;92309.56;;;21.84;67.83
64602;BME280;51013;42.630;23.192;2022-08-19T06:51:48;92282.06;;;21.83;67.16
64602;BME280;51013;42.630;23.192;2022-08-19T06:54:17;92246.81;;;21.68;67.61
64602;BME280;51013;42.630;23.192;2022-08-19T06:56:44;92319.19;;;22.25;65.94
64602;BME280;51013;42.630;23.192;2022-08-19T06:59:14;92316.31;;;22.35;66.65
64602;BME280;51013;42.630;23.192;2022-08-19T07:01:44;92317.28;;;22.45;67.25
64602;BME280;51013;42.630;23.192;2022-08-19T07:04:15;92319.00;;;22.55;66.20
64602;BME280;51013;42.630;23.192;2022-08-19T07:06:44;92300.59;;;22.57;64.87
64602;BME280;51013;42.630;23.192;2022-08-19T07:09:13;92315.81;;;22.80;64.29
64602;BME280;51013;42.630;23.192;2022-08-19T07:11:44;92276.63;;;22.70;64.83
64602;BME280;51013;42.630;23.192;2022-08-19T07:14:13;92291.84;;;22.93;64.76
64602;BME280;51013;42.630;23.192;2022-08-19T07:16:44;92250.53;;;22.74;63.97
64602;BME280;51013;42.630;23.192;2022-08-19T07:19:11;92313.69;;;23.28;60.94
64602;BME280;51013;42.630;23.192;2022-08-19T07:21:38;92265.25;;;23.03;59.27
64602;BME280;51013;42.630;23.192;2022-08-19T07:24:06;92297.38;;;23.39;59.16
64602;BME280;51013;42.630;23.192;2022-08-19T07:26:38;92312.44;;;23.66;59.96
64602;BME280;51013;42.630;23.192;2022-08-19T07:29:06;92320.84;;;23.84;57.08
64602;BME280;51013;42.630;23.192;2022-08-19T07:31:35;92320.94;;;23.97;54.81
64602;BME280;51013;42.630;23.192;2022-08-19T07:34:04;92271.72;;;23.71;56.60
64602;BME280;51013;42.630;23.192;2022-08-19T07:36:33;92269.56;;;23.82;57.47
64602;BME280;51013;42.630;23.192;2022-08-19T07:39:05;92280.53;;;23.88;56.41
64602;BME280;51013;42.630;23.192;2022-08-19T07:41:34;92294.00;;;24.17;59.01
64602;BME280;51013;42.630;23.192;2022-08-19T07:44:03;92321.44;;;24.37;58.28
64602;BME280;51013;42.630;23.192;2022-08-19T07:46:31;92300.72;;;24.38;54.47
64602;BME280;51013;42.630;23.192;2022-08-19T07:48:59;92318.34;;;24.68;54.65
64602;BME280;51013;42.630;23.192;2022-08-19T07:51:28;92311.25;;;24.74;53.88
64602;BME280;51013;42.630;23.192;2022-08-19T07:53:55;92322.25;;;24.80;54.43
64602;BME280;51013;42.630;23.192;2022-08-19T07:56:23;92305.78;;;24.78;54.25
64602;BME280;51013;42.630;23.192;2022-08-19T07:58:51;92305.81;;;24.91;51.43
64602;BME280;51013;42.630;23.192;2022-08-19T08:01:22;92313.03;;;25.07;54.93
64602;BME280;51013;42.630;23.192;2022-08-19T08:03:55;92289.03;;;24.99;54.54
64602;BME280;51013;42.630;23.192;2022-08-19T08:06:41;92321.34;;;25.38;49.88
64602;BME280;51013;42.630;23.192;2022-08-19T08:09:29;92253.78;;;24.97;51.77
64602;BME280;51013;42.630;23.192;2022-08-19T08:11:58;92322.19;;;25.61;48.88
64602;BME280;51013;42.630;23.192;2022-08-19T08:14:29;92282.75;;;25.45;48.72
64602;BME280;51013;42.630;23.192;2022-08-19T08:16:56;92293.44;;;25.70;45.91
64602;BME280;51013;42.630;23.192;2022-08-19T08:19:25;92287.59;;;25.85;46.48
64602;BME280;51013;42.630;23.192;2022-08-19T08:21:55;92311.81;;;26.10;45.88
64602;BME280;51013;42.630;23.192;2022-08-19T08:24:23;92255.56;;;25.90;44.35
64602;BME280;51013;42.630;23.192;2022-08-19T08:26:50;92310.78;;;26.30;43.02
64602;BME280;51013;42.630;23.192;2022-08-19T08:29:18;92256.91;;;26.08;42.63
64602;BME280;51013;42.630;23.192;2022-08-19T08:31:46;92276.00;;;26.23;44.74
64602;BME280;51013;42.630;23.192;2022-08-19T08:34:13;92305.38;;;26.52;45.54
64602;BME280;51013;42.630;23.192;2022-08-19T08:36:42;92305.78;;;26.63;43.43
64602;BME280;51013;42.630;23.192;2022-08-19T08:39:13;92284.78;;;26.58;44.85
64602;BME280;51013;42.630;23.192;2022-08-19T08:41:47;92291.31;;;26.70;42.56
64602;BME280;51013;42.630;23.192;2022-08-19T08:44:23;92256.25;;;26.61;42.98
64602;BME280;51013;42.630;23.192;2022-08-19T08:46:57;92311.53;;;26.96;43.47
64602;BME280;51013;42.630;23.192;2022-08-19T08:49:33;92301.41;;;27.10;41.57
64602;BME280;51013;42.630;23.192;2022-08-19T08:52:04;92302.88;;;27.24;42.41
64602;BME280;51013;42.630;23.192;2022-08-19T08:54:36;92302.28;;;27.29;41.53
64602;BME280;51013;42.630;23.192;2022-08-19T08:57:12;92268.97;;;27.23;40.82
64602;BME280;51013;42.630;23.192;2022-08-19T08:59:41;92244.25;;;27.15;43.14
64602;BME280;51013;42.630;23.192;2022-08-19T09:02:08;92255.84;;;27.34;41.12
64602;BME280;51013;42.630;23.192;2022-08-19T09:04:35;92292.31;;;27.57;39.73
64602;BME280;51013;42.630;23.192;2022-08-19T09:07:20;92274.22;;;27.67;40.59
64602;BME280;51013;42.630;23.192;2022-08-19T09:09:56;92288.50;;;27.86;40.64
64602;BME280;51013;42.630;23.192;2022-08-19T09:12:35;92275.00;;;27.86;38.38
64602;BME280;51013;42.630;23.192;2022-08-19T09:15:08;92295.00;;;28.07;39.33
64602;BME280;51013;42.630;23.192;2022-08-19T09:17:36;92273.09;;;27.95;40.86
64602;BME280;51013;42.630;23.192;2022-08-19T09:20:08;92282.09;;;28.20;39.49
64602;BME280;51013;42.630;23.192;2022-08-19T09:22:42;92261.56;;;28.13;39.64
64602;BME280;51013;42.630;23.192;2022-08-19T09:25:13;92227.06;;;27.99;38.38
64602;BME280;51013;42.630;23.192;2022-08-19T09:27:40;92283.31;;;28.47;40.71
64602;BME280;51013;42.630;23.192;2022-08-19T09:30:10;92251.06;;;28.25;37.91
64602;BME280;51013;42.630;23.192;2022-08-19T09:32:37;92191.06;;;27.93;39.84
64602;BME280;51013;42.630;23.192;2022-08-19T09:35:08;92290.06;;;28.70;39.18
64602;BME280;51013;42.630;23.192;2022-08-19T09:37:35;92287.34;;;28.79;40.26
64602;BME280;51013;42.630;23.192;2022-08-19T09:40:04;92270.50;;;28.84;38.89
64602;BME280;51013;42.630;23.192;2022-08-19T09:42:33;92274.19;;;29.05;37.26
64602;BME280;51013;42.630;23.192;2022-08-19T09:45:00;92285.47;;;29.13;36.20
64602;BME280;51013;42.630;23.192;2022-08-19T09:47:27;92283.38;;;29.17;36.99
64602;BME280;51013;42.630;23.192;2022-08-19T09:49:55;92250.50;;;29.00;38.05
64602;BME280;51013;42.630;23.192;2022-08-19T09:52:23;92278.34;;;29.34;34.58
64602;BME280;51013;42.630;23.192;2022-08-19T09:54:52;92278.94;;;29.38;36.46
64602;BME280;51013;42.630;23.192;2022-08-19T09:57:19;92232.28;;;29.19;36.65
64602;BME280;51013;42.630;23.192;2022-08-19T09:59:47;92278.56;;;29.54;36.79
64602;BME280;51013;42.630;23.192;2022-08-19T10:02:14;92241.16;;;29.44;36.18
64602;BME280;51013;42.630;23.192;2022-08-19T10:04:41;92263.72;;;29.74;35.91
64602;BME280;51013;42.630;23.192;2022-08-19T10:07:27;92263.63;;;29.92;34.92
64602;BME280;51013;42.630;23.192;2022-08-19T10:09:55;92221.94;;;29.66;34.72
64602;BME280;51013;42.630;23.192;2022-08-19T10:12:24;92241.66;;;29.90;32.89
64602;BME280;51013;42.630;23.192;2022-08-19T10:14:52;92238.66;;;29.88;32.33
64602;BME280;51013;42.630;23.192;2022-08-19T10:17:20;92220.94;;;29.87;33.21
64602;BME280;51013;42.630;23.192;2022-08-19T10:19:46;92235.94;;;30.12;32.64
64602;BME280;51013;42.630;23.192;2022-08-19T10:22:13;92255.91;;;30.39;34.19
64602;BME280;51013;42.630;23.192;2022-08-19T10:24:40;92200.72;;;30.12;31.02
64602;BME280;51013;42.630;23.192;2022-08-19T10:27:07;92259.03;;;30.62;32.51
64602;BME280;51013;42.630;23.192;2022-08-19T10:29:35;92255.94;;;30.69;29.18
64602;BME280;51013;42.630;23.192;2022-08-19T10:32:05;92160.09;;;30.12;31.72
64602;BME280;51013;42.630;23.192;2022-08-19T10:34:34;92246.25;;;30.92;29.32
64602;BME280;51013;42.630;23.192;2022-08-19T10:37:05;92178.84;;;30.55;29.94
64602;BME280;51013;42.630;23.192;2022-08-19T10:39:34;92230.06;;;30.98;30.50
64602;BME280;51013;42.630;23.192;2022-08-19T10:42:05;92231.09;;;31.15;30.64
64602;BME280;51013;42.630;23.192;2022-08-19T10:44:32;92244.97;;;31.38;28.99
64602;BME280;51013;42.630;23.192;2022-08-19T10:47:01;92225.72;;;31.35;29.60
64602;BME280;51013;42.630;23.192;2022-08-19T10:49:30;92241.03;;;31.53;29.44
64602;BME280;51013;42.630;23.192;2022-08-19T10:51:57;92211.19;;;31.39;27.05
64602;BME280;51013;42.630;23.192;2022-08-19T10:54:42;92257.19;;;31.83;29.64
64602;BME280;51013;42.630;23.192;2022-08-19T10:57:30;92239.84;;;31.96;28.10
64602;BME280;51013;42.630;23.192;2022-08-19T10:59:57;92247.78;;;31.99;29.40
64602;BME280;51013;42.630;23.192;2022-08-19T11:02:24;92215.19;;;31.79;29.34
64602;BME280;51013;42.630;23.192;2022-08-19T11:04:53;92244.53;;;32.16;31.01
64602;BME280;51013;42.630;23.192;2022-08-19T11:07:20;92239.44;;;32.23;30.86
64602;BME280;51013;42.630;23.192;2022-08-19T11:09:49;92200.84;;;31.99;28.75
64602;BME280;51013;42.630;23.192;2022-08-19T11:12:16;92200.59;;;32.17;27.32
64602;BME280;51013;42.630;23.192;2022-08-19T11:14:44;92118.44;;;31.81;28.04
64602;BME280;51013;42.630;23.192;2022-08-19T11:17:11;92196.22;;;32.51;28.36
64602;BME280;51013;42.630;23.192;2022-08-19T11:19:39;92194.72;;;32.71;27.37
64602;BME280;51013;42.630;23.192;2022-08-19T11:22:08;92161.81;;;32.69;31.15
64602;BME280;51013;42.630;23.192;2022-08-19T11:24:35;92230.00;;;33.23;27.31
64602;BME280;51013;42.630;23.192;2022-08-19T11:27:05;92225.78;;;33.22;26.31
64602;BME280;51013;42.630;23.192;2022-08-19T11:29:34;92235.13;;;33.53;26.50
64602;BME280;51013;42.630;23.192;2022-08-19T11:32:04;92216.91;;;33.65;27.32
64602;BME280;51013;42.630;23.192;2022-08-19T11:34:31;92237.09;;;33.90;29.13
64602;BME280;51013;42.630;23.192;2022-08-19T11:36:59;92227.38;;;33.78;26.80
64602;BME280;51013;42.630;23.192;2022-08-19T11:39:29;92208.56;;;33.74;27.37
64602;BME280;51013;42.630;23.192;2022-08-19T11:41:59;92166.66;;;33.66;28.42
64602;BME280;51013;42.630;23.192;2022-08-19T11:44:26;92199.19;;;33.92;28.71
64602;BME280;51013;42.630;23.192;2022-08-19T11:46:55;92221.56;;;34.07;26.35
64602;BME280;51013;42.630;23.192;2022-08-19T11:49:23;92161.34;;;34.00;27.74
64602;BME280;51013;42.630;23.192;2022-08-19T11:51:49;92222.22;;;34.57;27.05
64602;BME280;51013;42.630;23.192;2022-08-19T11:54:17;92202.34;;;34.45;26.96
64602;BME280;51013;42.630;23.192;2022-08-19T11:56:45;92191.22;;;34.60;27.51
64602;BME280;51013;42.630;23.192;2022-08-19T11:59:14;92218.81;;;35.13;27.00
64602;BME280;51013;42.630;23.192;2022-08-19T12:01:42;92211.59;;;35.09;25.69
64602;BME280;51013;42.630;23.192;2022-08-19T12:04:08;92153.31;;;34.96;26.59
64602;BME280;51013;42.630;23.192;2022-08-19T12:06:39;92186.53;;;35.39;25.10
64602;BME280;51013;42.630;23.192;2022-08-19T12:09:09;92203.59;;;35.62;23.58
64602;BME280;51013;42.630;23.192;2022-08-19T12:11:37;92202.09;;;35.78;25.73
64602;BME280;51013;42.630;23.192;2022-08-19T12:14:08;92174.78;;;35.73;23.56
64602;BME280;51013;42.630;23.192;2022-08-19T12:16:35;92175.00;;;35.86;25.71
64602;BME280;51013;42.630;23.192;2022-08-19T12:19:04;92169.06;;;35.76;23.34
64602;BME280;51013;42.630;23.192;2022-08-19T12:21:33;92132.31;;;35.77;24.58
64602;BME280;51013;42.630;23.192;2022-08-19T12:24:03;92175.28;;;36.29;25.58
64602;BME280;51013;42.630;23.192;2022-08-19T12:26:31;92174.53;;;36.35;23.64
64602;BME280;51013;42.630;23.192;2022-08-19T12:28:59;92160.75;;;36.52;22.88
64602;BME280;51013;42.630;23.192;2022-08-19T12:31:29;92181.94;;;36.81;23.96
64602;BME280;51013;42.630;23.192;2022-08-19T12:33:57;92171.16;;;36.64;23.09
64602;BME280;51013;42.630;23.192;2022-08-19T12:36:24;92131.91;;;36.50;24.85
64602;BME280;51013;42.630;23.192;2022-08-19T12:38:52;92160.47;;;36.91;22.86
64602;BME280;51013;42.630;23.192;2022-08-19T12:41:20;92171.19;;;37.25;24.64
64602;BME280;51013;42.630;23.192;2022-08-19T12:43:49;92130.00;;;37.06;23.54
64602;BME280;51013;42.630;23.192;2022-08-19T12:46:17;92164.63;;;37.58;23.72
64602;BME280;51013;42.630;23.192;2022-08-19T12:48:46;92171.03;;;37.85;23.61
64602;BME280;51013;42.630;23.192;2022-08-19T12:51:15;92112.28;;;37.62;22.48
64602;BME280;51013;42.630;23.192;2022-08-19T12:53:43;92124.75;;;38.01;22.49
64602;BME280;51013;42.630;23.192;2022-08-19T12:56:11;92156.69;;;38.36;21.69
64602;BME280;51013;42.630;23.192;2022-08-19T12:58:39;92160.69;;;38.73;21.07
64602;BME280;51013;42.630;23.192;2022-08-19T13:01:08;92157.50;;;38.50;21.63